Time;durP1;ratioP1;P1;durP2;ratioP2;P2;SDS_P1;SDS_P2;PMS_P1;PMS_P2;Temp;Humidity;BMP_temperature;BMP_pressure;BME280_temperature;BME280_humidity;BME280_pressure;Samples;Min_cycle;Max_cycle;Signal;HPM_P1;HPM_P2
2022/09/13 00:00:14;;;;;;;6.70;3.17;;;16.60;78.90;;;;;;5117776;28;20663;-84
2022/09/13 00:02:40;;;;;;;4.80;3.33;;;16.50;79.00;;;;;;5118482;28;20212;-82
2022/09/13 00:05:05;;;;;;;3.92;3.50;;;16.60;78.90;;;;;;5116365;28;20219;-83
2022/09/13 00:07:31;;;;;;;4.00;3.42;;;16.60;79.00;;;;;;5117486;28;20186;-83
2022/09/13 00:09:56;;;;;;;5.13;3.70;;;16.60;79.40;;;;;;5116995;27;20165;-84
2022/09/13 00:12:22;;;;;;;5.65;3.92;;;16.40;80.50;;;;;;5114924;28;20558;-85
2022/09/13 00:14:47;;;;;;;5.63;3.90;;;16.40;81.70;;;;;;5114984;28;20185;-85
2022/09/13 00:17:13;;;;;;;9.60;4.00;;;16.40;82.40;;;;;;5114680;28;20281;-85
2022/09/13 00:19:38;;;;;;;6.20;4.53;;;16.30;83.30;;;;;;5114829;28;20182;-86
2022/09/13 00:22:05;;;;;;;5.60;4.05;;;16.20;83.90;;;;;;5113781;28;20174;-85
2022/09/13 00:24:32;;;;;;;7.13;4.70;;;16.10;84.20;;;;;;5114724;28;20189;-85
2022/09/13 00:26:58;;;;;;;5.10;4.60;;;16.00;84.60;;;;;;5114855;28;20548;-85
2022/09/13 00:29:24;;;;;;;6.95;4.78;;;16.00;85.00;;;;;;5115922;28;20173;-86
2022/09/13 00:31:49;;;;;;;5.40;4.82;;;15.90;85.20;;;;;;5114579;28;20185;-86
2022/09/13 00:34:15;;;;;;;6.93;5.00;;;15.90;85.40;;;;;;5114508;28;20166;-86
2022/09/13 00:36:40;;;;;;;6.35;5.05;;;15.80;85.90;;;;;;5114526;28;20190;-87
2022/09/13 00:39:06;;;;;;;5.50;4.93;;;15.80;86.50;;;;;;5115819;28;20198;-86
2022/09/13 00:41:32;;;;;;;6.60;5.72;;;15.80;86.90;;;;;;5116108;28;20269;-86
2022/09/13 00:44:00;;;;;;;13.68;6.35;;;15.70;87.20;;;;;;5114216;28;20221;-87
2022/09/13 00:46:46;;;;;;;7.13;5.47;;;15.70;87.30;;;;;;5114145;28;20190;-87
2022/09/13 00:49:30;;;;;;;11.00;6.50;;;15.80;87.30;;;;;;5115181;28;20257;-86
2022/09/13 00:51:58;;;;;;;7.32;6.63;;;15.80;87.10;;;;;;5114202;28;20170;-86
2022/09/13 00:54:29;;;;;;;8.85;6.25;;;15.80;86.70;;;;;;5114213;28;20255;-86
2022/09/13 00:56:58;;;;;;;7.95;6.45;;;15.80;86.70;;;;;;5115554;28;20255;-86
2022/09/13 00:59:33;;;;;;;6.72;6.05;;;15.90;86.40;;;;;;5114131;28;20174;-86
2022/09/13 01:02:00;;;;;;;12.55;6.30;;;15.80;86.30;;;;;;5114131;28;20215;-86
2022/09/13 01:04:29;;;;;;;10.23;6.55;;;15.90;86.30;;;;;;5115040;28;20623;-86
2022/09/13 01:07:00;;;;;;;9.57;7.28;;;15.90;86.40;;;;;;5113749;28;20690;-86
2022/09/13 01:09:26;;;;;;;11.60;7.07;;;15.90;86.50;;;;;;5113882;28;20174;-86
2022/09/13 01:11:59;;;;;;;8.77;7.38;;;15.90;86.60;;;;;;5115384;28;20171;-86
2022/09/13 01:14:26;;;;;;;9.07;6.85;;;15.80;86.90;;;;;;5115028;28;20146;-87
2022/09/13 01:16:52;;;;;;;9.52;7.18;;;15.80;87.20;;;;;;5114928;28;20268;-86
2022/09/13 01:19:18;;;;;;;10.55;7.50;;;15.80;87.30;;;;;;5115231;28;20174;-86
2022/09/13 01:22:05;;;;;;;9.85;7.70;;;15.90;87.30;;;;;;5113678;28;20237;-86
2022/09/13 01:24:49;;;;;;;10.02;7.03;;;15.80;87.30;;;;;;5114803;28;20277;-86
2022/09/13 01:27:51;;;;;;;10.38;8.00;;;15.80;87.10;;;;;;5115078;28;20190;-86
2022/09/13 01:30:20;;;;;;;10.50;7.82;;;15.90;87.00;;;;;;5114710;28;20153;-86
2022/09/13 01:33:11;;;;;;;8.38;7.53;;;15.90;87.10;;;;;;5114399;28;20643;-87
2022/09/13 01:36:11;;;;;;;10.05;7.55;;;15.90;87.30;;;;;;5114694;28;20162;-86
2022/09/13 01:38:50;;;;;;;9.52;8.43;;;15.90;87.10;;;;;;5113374;28;20283;-86
2022/09/13 01:41:30;;;;;;;9.25;7.38;;;15.90;87.10;;;;;;5113215;28;20162;-86
2022/09/13 01:44:05;;;;;;;8.27;7.40;;;15.80;87.20;;;;;;5114419;28;20169;-86
2022/09/13 01:47:11;;;;;;;13.27;8.48;;;15.90;87.40;;;;;;5113098;28;20189;-86
2022/09/13 01:50:11;;;;;;;8.88;7.63;;;15.90;87.60;;;;;;5088634;28;20178;-86
2022/09/13 01:52:36;;;;;;;9.98;7.85;;;15.80;87.70;;;;;;5114357;28;20154;-86
2022/09/13 01:55:19;;;;;;;12.77;8.75;;;15.80;87.90;;;;;;5112976;28;20181;-86
2022/09/13 01:57:59;;;;;;;14.98;9.02;;;15.80;88.00;;;;;;5113072;28;20197;-86
2022/09/13 02:00:28;;;;;;;11.02;8.70;;;15.80;88.10;;;;;;5112869;28;20165;-86
2022/09/13 02:03:09;;;;;;;9.98;8.73;;;15.80;88.10;;;;;;5112601;28;20280;-86
2022/09/13 02:05:43;;;;;;;12.32;9.20;;;15.80;88.10;;;;;;5113816;28;20189;-86
2022/09/13 02:08:14;;;;;;;11.43;9.30;;;15.80;88.30;;;;;;5112640;28;20670;-86
2022/09/13 02:10:46;;;;;;;12.10;9.45;;;15.80;88.50;;;;;;5112728;28;20652;-85
2022/09/13 02:13:20;;;;;;;10.10;9.10;;;15.80;88.60;;;;;;5114001;28;20163;-86
2022/09/13 02:15:47;;;;;;;12.73;9.18;;;15.70;88.80;;;;;;5113951;28;20281;-87
2022/09/13 02:18:37;;;;;;;12.00;9.43;;;15.70;89.00;;;;;;5112580;28;20184;-86
2022/09/13 02:21:27;;;;;;;10.00;8.73;;;15.70;89.10;;;;;;5114193;28;20619;-86
2022/09/13 02:24:03;;;;;;;14.52;8.95;;;15.70;89.20;;;;;;5112526;28;20178;-86
2022/09/13 02:26:31;;;;;;;20.05;11.02;;;15.70;89.30;;;;;;5112476;28;20204;-85
2022/09/13 02:29:01;;;;;;;13.48;10.20;;;15.70;89.20;;;;;;5113714;28;20651;-86
2022/09/13 02:31:46;;;;;;;15.73;11.07;;;15.80;89.10;;;;;;5112410;28;20315;-85
2022/09/13 02:34:20;;;;;;;15.18;11.27;;;15.70;89.10;;;;;;5112637;28;20181;-85
2022/09/13 02:36:48;;;;;;;14.30;11.68;;;15.80;89.00;;;;;;5112325;28;20197;-86
2022/09/13 02:39:16;;;;;;;17.83;11.75;;;15.80;89.10;;;;;;5113654;28;20694;-86
2022/09/13 02:41:55;;;;;;;15.10;12.25;;;15.80;88.90;;;;;;5113362;28;20519;-85
2022/09/13 02:44:36;;;;;;;18.67;12.70;;;15.80;88.80;;;;;;5113728;28;20193;-86
2022/09/13 02:47:41;;;;;;;18.88;11.80;;;15.80;89.00;;;;;;5117010;28;20327;-85
2022/09/13 02:50:22;;;;;;;20.50;12.65;;;15.80;89.00;;;;;;5117810;28;20642;-86
2022/09/13 02:53:03;;;;;;;18.00;13.23;;;15.80;89.00;;;;;;5117703;28;20162;-85
2022/09/13 02:55:47;;;;;;;16.60;13.32;;;15.80;89.00;;;;;;5116466;28;20173;-85
2022/09/13 02:58:50;;;;;;;17.30;13.82;;;15.80;89.00;;;;;;5116463;28;20177;-86
2022/09/13 03:01:16;;;;;;;19.67;15.38;;;16.00;88.80;;;;;;5102056;28;20201;-86
2022/09/13 03:03:43;;;;;;;20.67;14.82;;;16.10;88.70;;;;;;5116157;28;20170;-85
2022/09/13 03:06:09;;;;;;;20.98;14.82;;;16.30;88.50;;;;;;5116115;28;20695;-86
2022/09/13 03:08:36;;;;;;;23.10;15.73;;;16.30;88.40;;;;;;5116132;28;20180;-85
2022/09/13 03:11:23;;;;;;;19.42;15.30;;;16.30;88.40;;;;;;5116161;28;20589;-86
2022/09/13 03:14:08;;;;;;;19.50;13.75;;;16.40;88.00;;;;;;5117445;28;20166;-86
2022/09/13 03:17:02;;;;;;;22.77;16.73;;;16.40;88.00;;;;;;5115969;28;20694;-86
2022/09/13 03:19:53;;;;;;;21.23;15.48;;;16.40;88.00;;;;;;5116017;28;20245;-85
2022/09/13 03:22:30;;;;;;;21.10;15.95;;;16.40;88.00;;;;;;5116023;28;20158;-85
2022/09/13 03:25:38;;;;;;;21.73;16.00;;;16.40;88.10;;;;;;5115848;28;20197;-86
2022/09/13 03:28:40;;;;;;;19.00;15.82;;;16.40;88.40;;;;;;5115766;28;20163;-86
2022/09/13 03:31:17;;;;;;;29.00;17.80;;;16.40;88.30;;;;;;5116564;28;20174;-85
2022/09/13 03:34:00;;;;;;;20.58;16.40;;;16.40;88.20;;;;;;5115669;28;20161;-86
2022/09/13 03:36:35;;;;;;;21.27;17.27;;;16.40;88.20;;;;;;5115527;28;20190;-85
2022/09/13 03:39:23;;;;;;;30.90;19.95;;;16.40;88.50;;;;;;5117065;28;20638;-85
2022/09/13 03:41:54;;;;;;;24.70;19.10;;;16.40;88.60;;;;;;5115586;28;20176;-85
2022/09/13 03:44:21;;;;;;;24.58;19.63;;;16.40;88.50;;;;;;5116980;28;20723;-87
2022/09/13 03:46:52;;;;;;;26.52;20.40;;;16.50;88.60;;;;;;5116638;28;20200;-86
2022/09/13 03:49:21;;;;;;;28.85;21.17;;;16.50;88.60;;;;;;5115462;28;20166;-85
2022/09/13 03:51:49;;;;;;;29.52;21.80;;;16.50;88.80;;;;;;5115332;28;20585;-86
2022/09/13 03:54:24;;;;;;;30.70;23.30;;;16.40;88.80;;;;;;5115377;28;20170;-86
2022/09/13 03:57:10;;;;;;;31.10;22.73;;;16.50;89.30;;;;;;5116480;28;20241;-86
2022/09/13 03:59:40;;;;;;;36.33;25.85;;;16.30;89.90;;;;;;5116448;27;20162;-85
2022/09/13 04:02:10;;;;;;;37.42;26.13;;;16.30;90.40;;;;;;5116252;28;20193;-86
2022/09/13 04:04:40;;;;;;;41.13;26.95;;;16.20;90.90;;;;;;5116520;28;20193;-86
2022/09/13 04:07:06;;;;;;;39.80;26.17;;;16.20;91.20;;;;;;5114999;28;20186;-86
2022/09/13 04:09:32;;;;;;;43.78;30.08;;;16.20;91.60;;;;;;5116592;28;20230;-86
2022/09/13 04:11:57;;;;;;;45.45;30.15;;;16.20;91.70;;;;;;5115023;28;20646;-86
2022/09/13 04:14:25;;;;;;;43.83;27.98;;;16.20;91.80;;;;;;5116191;28;20679;-86
2022/09/13 04:16:52;;;;;;;46.42;31.25;;;16.20;91.90;;;;;;5114894;28;20201;-86
2022/09/13 04:19:17;;;;;;;43.63;30.95;;;16.20;92.10;;;;;;5114784;28;20590;-86
2022/09/13 04:21:45;;;;;;;49.33;33.05;;;16.20;92.20;;;;;;5114781;28;20170;-86
2022/09/13 04:24:11;;;;;;;46.75;32.72;;;16.20;92.30;;;;;;5114905;28;20178;-86
2022/09/13 04:26:36;;;;;;;49.78;33.75;;;16.20;92.30;;;;;;5114524;28;20212;-86
2022/09/13 04:29:02;;;;;;;53.80;35.10;;;16.20;92.30;;;;;;5114597;28;20253;-86
2022/09/13 04:31:27;;;;;;;51.83;34.88;;;16.30;92.50;;;;;;5114599;28;20551;-86
2022/09/13 04:33:53;;;;;;;53.20;34.97;;;16.20;92.50;;;;;;5114591;28;20170;-86
2022/09/13 04:36:19;;;;;;;48.83;35.63;;;16.20;92.60;;;;;;5115807;28;20186;-85
2022/09/13 04:38:46;;;;;;;50.95;35.45;;;16.20;92.70;;;;;;5114426;28;20170;-85
2022/09/13 04:41:12;;;;;;;50.42;33.72;;;16.20;92.80;;;;;;5115565;28;20190;-85
2022/09/13 04:43:38;;;;;;;54.00;35.25;;;16.20;92.80;;;;;;5115852;28;20648;-85
2022/09/13 04:46:03;;;;;;;58.00;34.88;;;16.20;92.90;;;;;;5114141;28;20248;-86
2022/09/13 04:48:29;;;;;;;59.15;36.92;;;16.20;92.90;;;;;;5115470;28;20695;-86
2022/09/13 04:51:01;;;;;;;52.33;34.97;;;16.20;93.00;;;;;;5114117;28;20174;-85
2022/09/13 04:53:26;;;;;;;52.35;33.58;;;16.20;93.00;;;;;;5114330;28;20185;-85
2022/09/13 04:55:52;;;;;;;53.58;35.00;;;16.20;93.10;;;;;;5115517;28;20190;-85
2022/09/13 04:58:17;;;;;;;50.30;33.20;;;16.20;93.20;;;;;;5114144;28;20250;-85
2022/09/13 05:00:43;;;;;;;56.13;34.83;;;16.20;93.20;;;;;;5114162;28;20274;-85
2022/09/13 05:03:08;;;;;;;51.85;33.55;;;16.20;93.20;;;;;;5115707;28;20170;-85
2022/09/13 05:05:34;;;;;;;58.03;35.17;;;16.20;93.30;;;;;;5115079;28;20201;-85
2022/09/13 05:07:59;;;;;;;52.60;34.83;;;16.20;93.20;;;;;;5113271;28;20569;-86
2022/09/13 05:10:25;;;;;;;58.00;34.80;;;16.20;93.30;;;;;;5115063;28;20174;-85
2022/09/13 05:12:51;;;;;;;54.13;34.33;;;16.20;93.40;;;;;;5115036;28;20188;-86
2022/09/13 05:15:16;;;;;;;50.30;34.53;;;16.20;93.40;;;;;;5113739;28;20523;-86
2022/09/13 05:17:42;;;;;;;54.90;33.85;;;16.20;93.50;;;;;;5113561;28;20273;-86
2022/09/13 05:20:08;;;;;;;55.80;33.42;;;16.20;93.50;;;;;;5113659;28;20675;-86
2022/09/13 05:22:34;;;;;;;54.50;34.30;;;16.20;93.50;;;;;;5113864;28;20177;-85
2022/09/13 05:24:59;;;;;;;52.30;32.95;;;16.20;93.60;;;;;;5113646;28;20227;-86
2022/09/13 05:27:25;;;;;;;49.88;33.08;;;16.20;93.50;;;;;;5113359;28;20192;-86
2022/09/13 05:29:50;;;;;;;45.92;30.35;;;16.20;93.50;;;;;;5113580;28;20174;-86
2022/09/13 05:32:15;;;;;;;50.83;32.28;;;16.20;93.50;;;;;;5114787;28;20177;-87
2022/09/13 05:34:41;;;;;;;49.13;31.90;;;16.20;93.50;;;;;;5114759;28;20185;-86
2022/09/13 05:37:06;;;;;;;49.22;33.03;;;16.20;93.50;;;;;;5115476;28;20202;-85
2022/09/13 05:39:32;;;;;;;55.00;34.63;;;16.20;93.50;;;;;;5114657;28;20177;-86
2022/09/13 05:41:57;;;;;;;49.60;34.75;;;16.20;93.40;;;;;;5113434;28;20177;-86
2022/09/13 05:44:23;;;;;;;49.58;32.75;;;16.20;93.50;;;;;;5114650;28;20202;-86
2022/09/13 05:46:49;;;;;;;51.53;34.17;;;16.10;93.50;;;;;;5113799;28;20189;-86
2022/09/13 05:49:15;;;;;;;56.28;35.88;;;16.10;93.50;;;;;;5115224;28;20194;-85
2022/09/13 05:51:40;;;;;;;53.25;32.90;;;16.20;93.60;;;;;;5113163;28;20274;-85
2022/09/13 05:54:06;;;;;;;54.47;33.15;;;16.20;93.70;;;;;;5113757;28;20166;-85
2022/09/13 05:56:31;;;;;;;49.92;33.50;;;16.30;93.70;;;;;;5116218;28;20246;-85
2022/09/13 05:58:57;;;;;;;55.63;30.02;;;16.20;93.70;;;;;;5114188;28;20536;-85
2022/09/13 06:01:26;;;;;;;43.47;28.88;;;16.30;93.70;;;;;;5114470;28;20182;-85
2022/09/13 06:03:57;;;;;;;46.22;27.17;;;16.30;93.70;;;;;;5115897;28;20187;-85
2022/09/13 06:06:23;;;;;;;44.28;29.00;;;16.30;93.60;;;;;;5114431;28;20225;-85
2022/09/13 06:08:53;;;;;;;47.50;28.08;;;16.30;93.60;;;;;;5113711;28;20174;-85
2022/09/13 06:11:18;;;;;;;43.95;28.33;;;16.30;93.50;;;;;;5113607;28;20185;-85
2022/09/13 06:13:44;;;;;;;44.17;28.35;;;16.30;93.50;;;;;;5115171;28;20636;-86
2022/09/13 06:16:12;;;;;;;41.88;26.77;;;16.30;93.50;;;;;;5113901;28;20197;-86
2022/09/13 06:18:39;;;;;;;43.17;26.33;;;16.30;93.50;;;;;;5113435;28;20659;-85
2022/09/13 06:21:10;;;;;;;40.45;25.35;;;16.30;93.50;;;;;;5115557;28;20575;-85
2022/09/13 06:23:35;;;;;;;38.83;24.75;;;16.30;93.60;;;;;;5114722;28;20188;-85
2022/09/13 06:26:09;;;;;;;43.20;23.65;;;16.30;93.60;;;;;;5112802;28;20209;-85
2022/09/13 06:28:36;;;;;;;37.63;22.88;;;16.30;93.60;;;;;;5113267;28;20166;-85
2022/09/13 06:31:13;;;;;;;36.03;21.60;;;16.30;93.60;;;;;;5113167;28;20173;-85
2022/09/13 06:33:40;;;;;;;39.90;22.80;;;16.50;93.70;;;;;;5113610;28;20162;-85
2022/09/13 06:36:15;;;;;;;35.30;21.67;;;16.60;93.60;;;;;;5112698;28;20609;-86
2022/09/13 06:38:41;;;;;;;36.97;21.45;;;16.70;93.60;;;;;;5114501;28;20162;-86
2022/09/13 06:41:09;;;;;;;31.50;20.02;;;16.80;93.60;;;;;;5114526;28;20260;-86
2022/09/13 06:43:35;;;;;;;25.08;16.35;;;16.70;93.50;;;;;;5114086;28;20185;-88
2022/09/13 06:46:12;;;;;;;24.77;14.30;;;16.70;93.20;;;;;;5117037;28;20198;-88
2022/09/13 06:48:40;;;;;;;22.13;13.10;;;16.70;93.20;;;;;;5115580;28;20516;-88
2022/09/13 06:51:11;;;;;;;21.30;10.48;;;16.80;93.10;;;;;;5114125;28;20173;-86
2022/09/13 06:53:38;;;;;;;36.42;16.95;;;16.80;93.00;;;;;;5114763;28;20154;-87
2022/09/13 06:56:15;;;;;;;19.88;9.15;;;16.80;93.00;;;;;;5114107;28;20635;-86
2022/09/13 06:58:43;;;;;;;20.88;8.88;;;16.90;92.90;;;;;;5114226;28;20634;-87
2022/09/13 07:01:18;;;;;;;10.32;5.88;;;16.90;92.90;;;;;;5114553;28;20190;-85
2022/09/13 07:03:53;;;;;;;14.70;4.60;;;17.00;92.60;;;;;;5115785;27;20719;-86
2022/09/13 07:06:42;;;;;;;14.60;3.47;;;17.00;92.50;;;;;;5112776;28;20240;-86
2022/09/13 07:09:12;;;;;;;20.55;4.22;;;17.00;92.30;;;;;;5113205;28;20539;-86
2022/09/13 07:11:40;;;;;;;10.35;2.85;;;17.10;92.30;;;;;;5113103;28;20220;-86
2022/09/13 07:14:06;;;;;;;8.38;2.55;;;17.20;92.20;;;;;;5114391;28;20632;-87
2022/09/13 07:16:34;;;;;;;11.50;2.70;;;17.20;92.10;;;;;;5115078;28;20186;-87
2022/09/13 07:19:01;;;;;;;9.40;2.05;;;17.30;92.00;;;;;;5114941;28;20189;-88
2022/09/13 07:21:28;;;;;;;16.20;2.97;;;17.20;91.10;;;;;;5113916;28;20644;-87
2022/09/13 07:23:55;;;;;;;10.52;2.28;;;17.20;91.10;;;;;;5115481;28;20185;-86
2022/09/13 07:26:21;;;;;;;12.30;2.17;;;17.20;91.00;;;;;;5115618;28;20207;-87
2022/09/13 07:28:50;;;;;;;10.95;2.47;;;17.20;90.60;;;;;;5112276;28;20166;-86
2022/09/13 07:31:22;;;;;;;11.75;2.55;;;17.20;90.50;;;;;;5115605;28;20166;-87
2022/09/13 07:33:58;;;;;;;11.88;3.00;;;17.20;90.40;;;;;;5117738;28;20199;-87
2022/09/13 07:36:25;;;;;;;7.10;2.10;;;17.30;90.30;;;;;;5117952;28;20216;-86
2022/09/13 07:38:51;;;;;;;13.18;2.60;;;17.30;89.70;;;;;;5116110;28;20170;-86
2022/09/13 07:41:19;;;;;;;8.55;2.20;;;17.30;89.80;;;;;;5117253;28;20170;-86
2022/09/13 07:43:45;;;;;;;14.57;2.17;;;17.30;89.80;;;;;;5117887;28;20663;-85
2022/09/13 07:46:16;;;;;;;12.95;2.60;;;17.40;89.60;;;;;;5115521;28;20566;-85
2022/09/13 07:48:44;;;;;;;12.38;2.25;;;17.60;89.10;;;;;;5116751;28;20158;-85
2022/09/13 07:51:15;;;;;;;11.20;2.25;;;17.50;88.40;;;;;;5115490;28;20686;-87
2022/09/13 07:53:42;;;;;;;12.35;2.33;;;17.50;88.00;;;;;;5115638;28;20201;-85
2022/09/13 07:56:10;;;;;;;14.48;2.45;;;17.50;88.10;;;;;;5115367;28;20671;-85
2022/09/13 07:58:37;;;;;;;12.52;2.35;;;17.60;88.20;;;;;;5115354;28;20222;-85
2022/09/13 08:01:04;;;;;;;10.57;2.15;;;17.70;87.70;;;;;;5115454;28;20192;-86
2022/09/13 08:03:31;;;;;;;6.90;1.80;;;17.70;87.50;;;;;;5115376;28;20193;-86
2022/09/13 08:05:56;;;;;;;9.60;2.15;;;17.80;86.80;;;;;;5115265;28;20208;-86
2022/09/13 08:08:22;;;;;;;8.70;2.05;;;18.00;86.50;;;;;;5115360;28;20166;-85
2022/09/13 08:10:47;;;;;;;12.82;1.92;;;17.90;85.30;;;;;;5115511;28;20279;-86
2022/09/13 08:13:15;;;;;;;9.73;2.03;;;17.80;84.80;;;;;;5115307;28;20177;-86
2022/09/13 08:15:42;;;;;;;12.48;2.75;;;18.00;85.40;;;;;;5116590;28;20177;-86
2022/09/13 08:18:08;;;;;;;12.27;2.38;;;17.80;83.30;;;;;;5116547;28;20170;-84
2022/09/13 08:20:40;;;;;;;14.07;2.72;;;17.80;83.30;;;;;;5116292;28;20260;-85
2022/09/13 08:23:06;;;;;;;13.10;2.17;;;17.80;82.90;;;;;;5115132;28;20257;-87
2022/09/13 08:25:35;;;;;;;7.55;1.75;;;17.80;82.10;;;;;;5115955;28;20208;-86
2022/09/13 08:28:13;;;;;;;10.23;1.83;;;17.80;80.20;;;;;;5115256;28;20177;-85
2022/09/13 08:30:41;;;;;;;11.93;2.17;;;17.80;80.70;;;;;;5115706;28;20168;-86
2022/09/13 08:33:06;;;;;;;10.98;2.00;;;17.90;80.80;;;;;;5116222;28;20166;-86
2022/09/13 08:35:33;;;;;;;10.25;2.13;;;18.20;80.60;;;;;;5115139;28;20177;-86
2022/09/13 08:37:59;;;;;;;7.10;1.60;;;18.20;78.00;;;;;;5114834;28;20174;-85
2022/09/13 08:40:27;;;;;;;11.13;2.10;;;18.30;78.20;;;;;;5116887;28;20261;-86
2022/09/13 08:43:02;;;;;;;7.40;2.00;;;18.70;79.10;;;;;;5115754;28;20209;-87
2022/09/13 08:45:28;;;;;;;8.05;2.10;;;18.60;78.20;;;;;;5116652;28;20189;-87
2022/09/13 08:48:17;;;;;;;10.98;2.10;;;18.50;78.20;;;;;;5115011;28;20193;-87
2022/09/13 08:50:43;;;;;;;12.57;2.05;;;18.30;76.70;;;;;;5115970;28;20178;-86
2022/09/13 08:53:26;;;;;;;12.85;2.00;;;18.10;76.00;;;;;;5114851;28;20549;-87
2022/09/13 08:56:09;;;;;;;9.80;1.90;;;18.00;76.40;;;;;;5114552;28;20242;-86
2022/09/13 08:58:53;;;;;;;10.02;2.15;;;17.90;77.40;;;;;;5115879;28;20162;-87
2022/09/13 09:01:22;;;;;;;14.50;2.20;;;18.10;77.20;;;;;;5115385;28;20189;-88
2022/09/13 09:04:05;;;;;;;6.70;2.25;;;18.40;76.20;;;;;;5114490;28;20177;-85
2022/09/13 09:06:33;;;;;;;7.93;1.48;;;18.50;74.90;;;;;;5114788;28;20206;-86
2022/09/13 09:09:06;;;;;;;9.48;1.92;;;18.40;73.20;;;;;;5116013;28;20158;-85
2022/09/13 09:11:52;;;;;;;11.90;1.88;;;18.70;73.40;;;;;;5115499;28;20150;-86
2022/09/13 09:14:37;;;;;;;11.93;2.03;;;18.70;72.60;;;;;;5115682;28;20519;-85
2022/09/13 09:17:10;;;;;;;9.90;1.83;;;18.80;71.10;;;;;;5115605;28;20182;-85
2022/09/13 09:19:52;;;;;;;8.02;1.90;;;19.00;71.70;;;;;;5113753;28;20259;-85
2022/09/13 09:22:20;;;;;;;8.05;1.73;;;19.20;72.20;;;;;;5114250;28;20663;-86
2022/09/13 09:24:49;;;;;;;10.52;2.20;;;19.20;70.50;;;;;;5115447;28;20194;-85
2022/09/13 09:27:18;;;;;;;10.55;1.80;;;19.10;70.70;;;;;;5115347;28;20744;-86
2022/09/13 09:29:57;;;;;;;10.88;1.98;;;19.30;71.30;;;;;;5113914;28;20184;-86
2022/09/13 09:32:37;;;;;;;14.07;2.10;;;19.50;68.90;;;;;;5113506;28;20189;-84
2022/09/13 09:35:27;;;;;;;11.32;1.83;;;19.60;68.20;;;;;;5115560;28;20215;-85
2022/09/13 09:38:27;;;;;;;10.65;1.80;;;19.70;68.60;;;;;;5113769;28;20875;-85
2022/09/13 09:40:53;;;;;;;7.30;1.30;;;19.60;65.80;;;;;;5115005;28;20197;-86
2022/09/13 09:43:29;;;;;;;8.18;1.98;;;19.70;67.70;;;;;;5113699;28;20182;-86
2022/09/13 09:45:57;;;;;;;10.50;1.65;;;19.80;66.20;;;;;;5113420;28;20251;-86
2022/09/13 09:48:28;;;;;;;7.75;1.90;;;19.70;65.90;;;;;;5113495;28;20178;-84
2022/09/13 09:51:00;;;;;;;4.60;1.50;;;19.90;65.40;;;;;;5115491;28;20204;-84
2022/09/13 09:53:36;;;;;;;10.10;2.08;;;19.80;65.70;;;;;;5115188;28;20150;-83
2022/09/13 09:56:27;;;;;;;9.02;1.50;;;19.60;65.10;;;;;;5115641;28;20193;-85
2022/09/13 09:58:54;;;;;;;9.15;1.60;;;19.90;66.30;;;;;;5113980;28;20181;-84
2022/09/13 10:01:27;;;;;;;6.88;1.60;;;20.30;64.60;;;;;;5115062;28;20270;-84
2022/09/13 10:04:08;;;;;;;8.13;2.35;;;20.00;64.40;;;;;;5115021;27;20158;-84
2022/09/13 10:06:36;;;;;;;12.85;2.15;;;20.00;63.70;;;;;;5114454;28;20198;-84
2022/09/13 10:09:13;;;;;;;8.10;1.90;;;20.20;64.30;;;;;;5114292;28;20546;-84
2022/09/13 10:11:56;;;;;;;3.05;1.20;;;20.50;64.00;;;;;;5112861;28;20208;-84
2022/09/13 10:14:58;;;;;;;4.68;1.52;;;20.20;63.00;;;;;;5112890;28;20223;-84
2022/09/13 10:17:26;;;;;;;11.70;2.10;;;20.50;63.60;;;;;;5100955;28;20198;-87
2022/09/13 10:19:56;;;;;;;5.50;1.75;;;20.80;63.60;;;;;;5114570;28;20170;-86
2022/09/13 10:22:22;;;;;;;7.80;1.90;;;21.00;62.30;;;;;;5114112;28;20246;-85
2022/09/13 10:24:49;;;;;;;6.97;1.48;;;20.70;60.90;;;;;;5112942;28;20296;-85
2022/09/13 10:27:24;;;;;;;3.88;1.20;;;20.70;60.90;;;;;;5113982;28;20186;-86
2022/09/13 10:29:54;;;;;;;7.05;1.40;;;20.20;61.40;;;;;;5113969;28;20161;-86
2022/09/13 10:32:20;;;;;;;6.13;2.08;;;20.00;63.90;;;;;;5113051;28;20204;-87
2022/09/13 10:34:48;;;;;;;7.55;2.08;;;19.60;63.80;;;;;;5112956;28;20666;-86
2022/09/13 10:37:30;;;;;;;10.45;2.03;;;19.30;65.40;;;;;;5112433;28;20194;-85
2022/09/13 10:40:08;;;;;;;8.50;1.58;;;19.20;66.60;;;;;;5112581;28;20170;-85
2022/09/13 10:42:34;;;;;;;7.65;1.67;;;19.30;67.40;;;;;;5114685;28;20150;-85
2022/09/13 10:45:04;;;;;;;10.82;1.98;;;19.80;65.50;;;;;;5114070;28;20276;-86
2022/09/13 10:47:33;;;;;;;7.03;1.50;;;20.30;66.10;;;;;;5114152;28;20190;-86
2022/09/13 10:50:20;;;;;;;5.63;1.70;;;20.40;62.00;;;;;;5113987;28;20248;-85
2022/09/13 10:52:52;;;;;;;8.90;2.20;;;20.20;62.30;;;;;;5112915;28;20215;-83
2022/09/13 10:55:18;;;;;;;4.88;1.40;;;20.30;63.30;;;;;;5113284;28;20173;-83
2022/09/13 10:57:48;;;;;;;10.25;2.95;;;20.20;61.90;;;;;;5114248;28;20247;-82
2022/09/13 11:00:18;;;;;;;7.93;1.75;;;20.20;61.40;;;;;;5115297;28;20174;-83
2022/09/13 11:03:21;;;;;;;9.40;2.42;;;20.00;63.10;;;;;;5114678;28;20190;-83
2022/09/13 11:06:04;;;;;;;5.57;1.50;;;19.60;62.20;;;;;;5114650;28;20603;-86
2022/09/13 11:09:00;;;;;;;11.40;2.28;;;19.50;63.60;;;;;;5119266;28;20158;-86
2022/09/13 11:11:51;;;;;;;11.85;2.15;;;19.70;63.80;;;;;;5117263;28;20608;-85
2022/09/13 11:14:29;;;;;;;6.10;1.75;;;20.00;61.70;;;;;;5118100;28;20162;-87
2022/09/13 11:17:14;;;;;;;7.80;1.75;;;20.10;59.40;;;;;;5119898;28;20185;-86
2022/09/13 11:20:02;;;;;;;5.38;1.35;;;19.80;61.40;;;;;;5118774;28;20201;-86
2022/09/13 11:22:39;;;;;;;8.20;1.80;;;19.80;63.20;;;;;;5119551;28;20155;-84
2022/09/13 11:25:13;;;;;;;14.70;2.30;;;19.90;63.10;;;;;;5119548;28;20182;-85
2022/09/13 11:27:49;;;;;;;9.57;1.65;;;20.20;63.40;;;;;;5118824;27;20181;-85
2022/09/13 11:30:18;;;;;;;7.30;1.67;;;20.30;62.60;;;;;;5118805;28;20526;-84
2022/09/13 11:33:02;;;;;;;8.30;2.03;;;20.30;64.00;;;;;;5117431;28;20174;-86
2022/09/13 11:36:04;;;;;;;9.00;2.08;;;19.90;64.10;;;;;;5119235;28;20524;-85
2022/09/13 11:39:07;;;;;;;8.60;1.73;;;20.00;63.60;;;;;;5116119;28;20192;-86
2022/09/13 11:41:56;;;;;;;9.30;1.67;;;19.80;63.00;;;;;;5118041;28;20195;-85
2022/09/13 11:44:36;;;;;;;8.30;1.40;;;20.00;62.20;;;;;;5117460;28;20193;-86
2022/09/13 11:47:10;;;;;;;7.53;1.60;;;20.00;63.10;;;;;;5117566;28;20225;-86
2022/09/13 11:49:57;;;;;;;10.70;1.95;;;20.40;63.00;;;;;;5116388;28;20170;-85
2022/09/13 11:52:41;;;;;;;9.63;1.90;;;20.70;62.70;;;;;;5118157;28;20579;-87
2022/09/13 11:55:15;;;;;;;10.80;2.03;;;20.70;62.20;;;;;;5115936;28;20177;-85
2022/09/13 11:57:47;;;;;;;12.93;2.10;;;20.50;62.60;;;;;;5116533;28;20200;-88
2022/09/13 12:00:24;;;;;;;6.47;1.50;;;20.40;63.40;;;;;;5116507;28;20177;-86
2022/09/13 12:03:00;;;;;;;7.68;1.60;;;20.80;62.90;;;;;;5117539;28;20198;-87
2022/09/13 12:05:31;;;;;;;7.45;1.75;;;21.10;62.50;;;;;;5119104;28;20213;-87
2022/09/13 12:08:04;;;;;;;10.95;1.92;;;21.30;62.50;;;;;;5119897;28;20159;-88
2022/09/13 12:10:54;;;;;;;8.85;2.25;;;20.80;61.50;;;;;;5120944;28;20646;-87
2022/09/13 12:13:28;;;;;;;13.93;2.70;;;21.20;63.80;;;;;;5121401;28;20208;-86
2022/09/13 12:16:01;;;;;;;6.78;1.92;;;21.10;63.00;;;;;;5118856;28;20281;-86
2022/09/13 12:18:48;;;;;;;9.52;2.00;;;21.00;61.80;;;;;;5117911;28;20162;-87
2022/09/13 12:21:18;;;;;;;10.23;2.20;;;20.40;62.70;;;;;;5119719;28;20221;-84
2022/09/13 12:23:59;;;;;;;8.05;1.65;;;20.40;64.10;;;;;;5118603;28;20522;-86
2022/09/13 12:26:47;;;;;;;7.20;1.63;;;20.70;63.60;;;;;;5118557;28;20237;-86
2022/09/13 12:29:22;;;;;;;7.00;1.77;;;20.60;63.90;;;;;;5119065;28;20578;-85
2022/09/13 12:31:48;;;;;;;11.90;2.22;;;20.90;63.00;;;;;;5119375;28;20177;-86
2022/09/13 12:34:25;;;;;;;7.85;1.42;;;21.20;62.00;;;;;;5118720;28;20170;-85
2022/09/13 12:37:20;;;;;;;8.98;1.50;;;21.20;61.10;;;;;;5118237;28;20200;-85
2022/09/13 12:40:13;;;;;;;5.78;1.55;;;21.00;62.30;;;;;;5118776;28;20146;-85
2022/09/13 12:42:41;;;;;;;12.98;2.22;;;20.80;61.10;;;;;;5117258;28;20246;-84
2022/09/13 12:45:17;;;;;;;6.82;1.65;;;20.50;63.00;;;;;;5117023;28;20252;-87
2022/09/13 12:48:03;;;;;;;7.50;1.92;;;20.50;64.30;;;;;;5118835;28;20675;-86
2022/09/13 12:50:35;;;;;;;9.20;1.40;;;20.70;63.90;;;;;;5117652;28;20659;-85
2022/09/13 12:53:25;;;;;;;9.52;1.88;;;20.60;64.60;;;;;;5117495;28;20551;-85
2022/09/13 12:55:51;;;;;;;9.52;1.80;;;20.90;64.40;;;;;;5115100;28;20198;-87
2022/09/13 12:58:54;;;;;;;5.63;1.50;;;20.90;64.40;;;;;;5114604;28;20264;-85
2022/09/13 13:01:25;;;;;;;10.85;2.05;;;20.80;66.30;;;;;;5114855;28;20690;-84
2022/09/13 13:04:17;;;;;;;12.07;1.90;;;20.90;66.70;;;;;;5114494;28;20171;-85
2022/09/13 13:06:54;;;;;;;10.88;1.52;;;20.90;65.10;;;;;;5106454;28;20212;-87
2022/09/13 13:09:41;;;;;;;7.18;1.90;;;20.70;66.50;;;;;;5115808;28;20166;-84